الصفحة الرئيسية
METAR-TAF:

METAR-TAF

مطار :

Grant County Airport

سيلفر سيتي, نيومكسيكو, الولايات المتحدة

دائرة عرض: 32-38N, خط طول: 108-09W, ارتفاع: 1659 متر

مراقبة الطقس الحالي

تاريخ ووقت الإصدار 12 دقيقة قبل الساعة 10:15UTC
ريح 8 عقدة من الشمال
درجة الحرارة 2°درجة مئوية
الرطوبة 64%
ضغط 1017 hPa
الرؤية: 16.1 كم
سماء صافية

METAR: KSVC 221015Z AUTO 35008KT 10SM CLR 02/M04 A3002 RMK AO2 T00221042

زمن: 04:27 (10:27 UTC)


TAF: مفقودة

أرصاد الطقس والتوقعات من أكثر من 4000 مطار (تقارير الطقس للمطار METAR والتنبؤ بالطقس بالمطارTAF).

المحطات المتاحة هي النقط الصفراء والحمراء على الخريطة.

حرك المؤشر فوق النقطة لمعرفة اسم المحطة.

ثم انقر لمعرفة أرصاد وتوقعات الطقس.

لتغيير الخارطة: اضغط على الأزرار الخضراء مع رمز الصليب الأسود للتكبير. على الزر الأخضر مع شرطة للتصغير، أو على الأسهم الخضراء للخرائط المجاورة.


METAR-TAF: